Bluff City, Tennessee
Current Conditions -  °F | °C
As of 1:53 PM on Friday 28 Nov 2014 (Local Time) from KTRI Reporting Station
Few Clouds Few Clouds  
Wind Chill: 30°   Ceiling: Unl
Heat Index: 35°   Visibility: 10mi
Dew Point: 21°   Wind: 6mph
Humidity: 57%   Direction: 160°SSE
Pressure: 30.31"   Gusts: NA
Location:  36.47°N, 82.26°W
Report Text: KTRI 281853Z 16005KT 10SM FEW033 02/M06 A3031 RMK AO2 SLP267 T00171061
Loading
Personal Weather Stations






























Interactive Weather Map New forecast layout! Learn more

10-Day Weather Forecast

Advertisements
Track Severe Weather on mobile